Time;durP1;ratioP1;P1;durP2;ratioP2;P2;SDS_P1;SDS_P2;PMS_P1;PMS_P2;Temp;Humidity;BMP_temperature;BMP_pressure;BME280_temperature;BME280_humidity;BME280_pressure;Samples;Min_cycle;Max_cycle;Signal;HPM_P1;HPM_P2
2022/07/02 00:01:56;;;;;;;5.35;2.80;;;;;;;24.29;43.16;102204.41;5092104;28;20103;-72
2022/07/02 00:04:27;;;;;;;6.45;2.40;;;;;;;23.71;45.06;102197.19;5092075;28;20016;-71
2022/07/02 00:06:53;;;;;;;6.95;2.67;;;;;;;23.78;44.66;102196.00;5092264;28;20023;-72
2022/07/02 00:09:19;;;;;;;13.10;3.08;;;;;;;23.60;45.82;102194.13;5092339;28;20026;-71
2022/07/02 00:11:47;;;;;;;6.30;2.90;;;;;;;23.20;46.39;102183.34;5092549;28;20346;-72
2022/07/02 00:14:14;;;;;;;10.35;2.45;;;;;;;23.16;47.02;102189.75;5092110;28;20020;-71
2022/07/02 00:16:44;;;;;;;4.88;2.38;;;;;;;24.05;44.44;102195.72;5092032;28;20395;-72
2022/07/02 00:19:09;;;;;;;5.65;2.03;;;;;;;23.43;45.69;102182.38;5091121;28;20028;-71
2022/07/02 00:21:39;;;;;;;4.07;1.67;;;;;;;23.31;45.03;102177.56;5091851;28;20057;-72
2022/07/02 00:24:08;;;;;;;6.72;2.22;;;;;;;22.51;47.40;102187.84;5091669;28;20020;-71
2022/07/02 00:26:38;;;;;;;7.65;2.45;;;;;;;24.02;43.70;102186.03;5090982;28;20024;-72
2022/07/02 00:29:12;;;;;;;6.95;1.90;;;;;;;23.97;44.07;102188.03;5091685;28;20024;-71
2022/07/02 00:31:38;;;;;;;6.30;2.53;;;;;;;23.59;44.73;102192.38;5091562;28;20111;-71
2022/07/02 00:34:05;;;;;;;9.75;1.92;;;;;;;24.20;43.44;102186.13;5090992;28;20030;-71
2022/07/02 00:36:31;;;;;;;5.88;1.73;;;;;;;23.47;44.76;102191.13;5091483;28;20023;-72
2022/07/02 00:38:57;;;;;;;6.30;2.95;;;;;;;23.48;44.18;102185.72;5092457;28;20020;-71
2022/07/02 00:41:25;;;;;;;5.07;1.70;;;;;;;24.28;42.85;102183.13;5090583;28;20119;-71
2022/07/02 00:43:52;;;;;;;6.75;1.83;;;;;;;23.88;43.48;102184.00;5091192;28;20042;-71
2022/07/02 00:46:19;;;;;;;5.72;2.03;;;;;;;23.74;44.46;102189.06;5091291;28;20055;-71
2022/07/02 00:48:44;;;;;;;9.25;3.25;;;;;;;23.42;44.59;102188.63;5090360;28;20396;-71
2022/07/02 00:51:10;;;;;;;3.47;1.80;;;;;;;24.41;42.81;102186.06;5090884;28;20031;-71
2022/07/02 00:53:35;;;;;;;7.18;1.92;;;;;;;24.21;42.92;102183.38;5090641;28;20081;-72
2022/07/02 00:56:01;;;;;;;6.10;2.00;;;;;;;24.40;42.27;102195.91;5090763;28;20020;-71
2022/07/02 00:58:30;;;;;;;4.30;2.10;;;;;;;24.08;42.91;102192.88;5090834;28;20489;-71
2022/07/02 01:00:56;;;;;;;6.78;2.03;;;;;;;24.08;43.19;102192.03;5091412;28;20031;-71
2022/07/02 01:03:21;;;;;;;6.88;1.85;;;;;;;24.29;42.75;102192.84;5092356;28;20024;-72
2022/07/02 01:05:49;;;;;;;8.57;2.22;;;;;;;24.15;42.90;102186.34;5092360;28;20016;-71
2022/07/02 01:11:05;;;;;;;4.32;1.88;;;;;;;23.19;44.30;102184.28;5092352;28;20115;-71
2022/07/02 01:13:32;;;;;;;5.07;1.98;;;;;;;23.39;43.93;102180.78;5092041;28;20107;-71
2022/07/02 01:15:58;;;;;;;5.28;2.95;;;;;;;23.03;43.90;102178.72;5090078;28;20072;-72
2022/07/02 01:18:23;;;;;;;7.97;1.70;;;;;;;23.57;42.75;102175.59;5090911;28;20024;-71
2022/07/02 01:20:48;;;;;;;7.50;1.58;;;;;;;23.37;43.00;102177.31;5092122;28;20383;-71
2022/07/02 01:23:14;;;;;;;5.88;1.50;;;;;;;22.45;44.74;102179.22;5089840;28;20063;-71
2022/07/02 01:25:40;;;;;;;2.70;1.45;;;;;;;23.49;42.29;102182.13;5091964;28;20035;-71
2022/07/02 01:28:05;;;;;;;5.03;1.83;;;;;;;23.60;42.13;102181.63;5090714;28;20031;-71
2022/07/02 01:30:31;;;;;;;6.70;1.20;;;;;;;23.86;40.75;102167.16;5089690;28;20020;-71
2022/07/02 01:32:56;;;;;;;6.00;1.55;;;;;;;23.90;40.75;102173.25;5091937;28;20035;-71
2022/07/02 01:35:22;;;;;;;2.92;1.27;;;;;;;22.78;42.55;102178.81;5090545;28;20024;-71
2022/07/02 01:37:49;;;;;;;4.25;1.10;;;;;;;23.71;41.18;102170.50;5089852;28;20491;-72
2022/07/02 01:40:14;;;;;;;4.28;1.10;;;;;;;23.13;41.67;102187.22;5091814;28;20387;-71
2022/07/02 01:42:40;;;;;;;2.83;0.98;;;;;;;23.94;40.65;102182.84;5090011;28;20044;-71
2022/07/02 01:45:06;;;;;;;3.88;1.38;;;;;;;23.13;41.90;102172.06;5089368;28;20012;-71
2022/07/02 01:47:31;;;;;;;3.47;1.20;;;;;;;23.28;41.51;102177.72;5090239;28;20067;-71
2022/07/02 01:49:57;;;;;;;6.53;1.42;;;;;;;22.94;42.55;102189.75;5090482;28;20464;-71
2022/07/02 01:52:23;;;;;;;6.30;1.95;;;;;;;22.45;43.43;102185.44;5091533;28;20035;-72
2022/07/02 01:54:48;;;;;;;7.30;1.23;;;;;;;23.46;41.83;102181.38;5091440;28;20028;-71
2022/07/02 01:57:14;;;;;;;7.00;1.25;;;;;;;23.49;41.44;102182.13;5090738;28;20028;-71
2022/07/02 01:59:40;;;;;;;1.80;1.20;;;;;;;23.79;40.85;102184.38;5090253;28;20131;-71
2022/07/02 02:02:06;;;;;;;5.43;1.25;;;;;;;23.44;41.54;102184.13;5089979;28;20012;-71
2022/07/02 02:04:33;;;;;;;6.18;1.58;;;;;;;23.49;41.92;102182.13;5091400;28;20020;-71
2022/07/02 02:06:58;;;;;;;2.42;1.38;;;;;;;23.91;41.21;102184.81;5094405;28;20024;-71
2022/07/02 02:09:24;;;;;;;6.22;1.42;;;;;;;23.64;41.76;102175.22;5094346;28;20016;-72
2022/07/02 02:11:49;;;;;;;5.38;1.63;;;;;;;23.72;41.55;102180.25;5093468;28;20035;-70
2022/07/02 02:14:14;;;;;;;4.18;1.67;;;;;;;23.79;41.41;102173.69;5094155;28;20467;-72
2022/07/02 02:16:40;;;;;;;6.65;1.55;;;;;;;22.63;43.75;102180.34;5095404;28;20028;-71
2022/07/02 02:19:06;;;;;;;3.38;1.50;;;;;;;23.40;42.23;102177.19;5093381;28;20024;-71
2022/07/02 02:21:32;;;;;;;10.10;2.38;;;;;;;22.64;43.22;102174.03;5094223;28;20016;-71
2022/07/02 02:23:58;;;;;;;4.88;1.40;;;;;;;22.83;43.08;102177.72;5093973;28;20472;-71
2022/07/02 02:26:24;;;;;;;3.25;1.25;;;;;;;22.59;43.68;102184.03;5093309;28;20020;-72
2022/07/02 02:28:49;;;;;;;4.60;1.40;;;;;;;24.21;40.29;102186.06;5093805;28;20055;-73
2022/07/02 02:31:14;;;;;;;4.80;1.48;;;;;;;24.07;40.90;102180.50;5095174;28;20470;-71
2022/07/02 02:33:41;;;;;;;3.25;1.73;;;;;;;23.65;41.00;102170.78;5093483;28;20107;-71
2022/07/02 02:36:07;;;;;;;4.00;1.30;;;;;;;22.97;42.35;102192.28;5093765;28;20043;-71
2022/07/02 02:38:36;;;;;;;3.28;1.27;;;;;;;23.48;41.25;102183.06;5093443;28;20038;-72
2022/07/02 02:41:07;;;;;;;2.63;1.40;;;;;;;23.07;42.58;102180.31;5094365;28;20012;-71
2022/07/02 02:43:34;;;;;;;3.13;1.42;;;;;;;22.05;44.16;102189.59;5093653;28;20043;-71
2022/07/02 02:46:00;;;;;;;6.00;1.73;;;;;;;22.62;43.50;102178.59;5093794;28;20045;-72
2022/07/02 02:48:27;;;;;;;4.95;1.35;;;;;;;22.44;43.38;102181.03;5093089;28;20027;-71
2022/07/02 02:50:52;;;;;;;3.40;1.50;;;;;;;22.48;43.68;102174.66;5094903;28;20078;-71
2022/07/02 02:53:18;;;;;;;2.30;1.30;;;;;;;22.93;42.80;102175.56;5093949;28;20811;-71
2022/07/02 02:55:43;;;;;;;2.65;1.45;;;;;;;23.27;42.12;102165.31;5093575;28;20056;-71
2022/07/02 02:58:09;;;;;;;3.03;1.13;;;;;;;23.15;42.41;102172.91;5094967;28;20035;-71
2022/07/02 03:00:34;;;;;;;3.10;1.20;;;;;;;23.47;41.71;102167.97;5092728;28;20458;-71
2022/07/02 03:03:00;;;;;;;5.57;1.35;;;;;;;23.25;42.74;102164.50;5094671;28;20032;-71
2022/07/02 03:05:25;;;;;;;4.63;2.45;;;;;;;22.58;43.65;102168.97;5093374;28;20024;-71
2022/07/02 03:07:50;;;;;;;3.83;1.25;;;;;;;23.29;42.49;102169.63;5092256;28;20032;-72
2022/07/02 03:10:16;;;;;;;2.00;1.60;;;;;;;23.63;41.51;102172.63;5094545;28;20024;-71
2022/07/02 03:12:41;;;;;;;5.20;1.40;;;;;;;23.64;42.17;102172.56;5093121;28;20044;-71
2022/07/02 03:15:07;;;;;;;1.98;1.30;;;;;;;23.81;41.02;102181.63;5091998;28;20089;-72
2022/07/02 03:17:33;;;;;;;2.47;1.42;;;;;;;23.41;42.25;102184.25;5093063;28;20024;-72
2022/07/02 03:19:58;;;;;;;11.20;1.95;;;;;;;23.49;42.21;102182.13;5092818;28;20070;-72
2022/07/02 03:22:24;;;;;;;3.10;1.27;;;;;;;23.63;41.54;102186.88;5093608;28;20024;-72
2022/07/02 03:24:49;;;;;;;4.10;1.30;;;;;;;23.92;40.83;102194.53;5094094;28;20035;-72
2022/07/02 03:27:14;;;;;;;3.75;1.33;;;;;;;23.79;40.61;102194.19;5094156;28;20056;-72
2022/07/02 03:29:40;;;;;;;4.50;1.50;;;;;;;23.48;41.46;102198.19;5092084;28;20023;-72
2022/07/02 03:32:05;;;;;;;4.05;1.33;;;;;;;23.08;42.52;102208.72;5092657;28;20039;-71
2022/07/02 03:34:31;;;;;;;5.53;1.48;;;;;;;22.89;42.32;102208.59;5092381;28;20023;-71
2022/07/02 03:36:56;;;;;;;3.33;2.03;;;;;;;23.54;41.07;102196.13;5091906;28;20016;-72
2022/07/02 03:39:21;;;;;;;4.78;2.00;;;;;;;23.61;41.00;102206.53;5092551;28;20020;-72
2022/07/02 03:41:47;;;;;;;12.95;1.60;;;;;;;22.78;42.35;102213.47;5089274;28;20382;-72
2022/07/02 03:44:12;;;;;;;2.80;2.17;;;;;;;23.25;41.94;102210.72;5072585;28;20111;-72
2022/07/02 03:46:38;;;;;;;4.68;1.50;;;;;;;23.36;41.55;102204.94;5055699;28;20029;-72
2022/07/02 03:49:03;;;;;;;2.60;1.10;;;;;;;23.08;41.74;102203.38;5055435;28;20024;-72
2022/07/02 03:51:28;;;;;;;7.50;1.75;;;;;;;22.80;42.58;102199.16;5054614;28;20038;-72
2022/07/02 03:53:54;;;;;;;3.33;1.42;;;;;;;23.14;41.78;102208.47;5073247;28;20028;-72
2022/07/02 03:56:19;;;;;;;7.40;1.55;;;;;;;23.01;42.46;102201.88;5055376;28;20081;-72
2022/07/02 03:58:44;;;;;;;3.40;1.30;;;;;;;23.32;41.88;102198.84;5054680;28;20098;-72
2022/07/02 04:01:10;;;;;;;4.60;2.00;;;;;;;23.40;41.52;102211.88;5055428;28;20103;-72
2022/07/02 04:03:35;;;;;;;6.78;1.85;;;;;;;23.25;41.82;102217.84;5054454;28;20109;-72
2022/07/02 04:06:01;;;;;;;5.65;1.98;;;;;;;22.99;42.14;102211.75;5055271;28;20395;-72
2022/07/02 04:08:26;;;;;;;2.95;1.60;;;;;;;23.27;42.01;102223.97;5055033;28;20012;-72
2022/07/02 04:10:52;;;;;;;5.22;1.70;;;;;;;23.02;42.26;102214.28;5054492;28;20024;-72
2022/07/02 04:13:17;;;;;;;2.30;1.42;;;;;;;22.97;42.79;102216.25;5055318;28;20408;-72
2022/07/02 04:15:43;;;;;;;4.28;1.38;;;;;;;23.12;42.35;102215.69;5055229;28;20491;-72
2022/07/02 04:18:08;;;;;;;2.50;1.25;;;;;;;22.93;42.49;102210.22;5072318;28;20024;-72
2022/07/02 04:20:33;;;;;;;2.55;1.15;;;;;;;22.23;44.23;102213.78;5054559;28;20009;-72
2022/07/02 04:22:59;;;;;;;2.95;1.67;;;;;;;22.44;44.05;102222.81;5072887;28;20476;-72
2022/07/02 04:25:24;;;;;;;5.05;1.45;;;;;;;22.86;42.85;102220.25;5053847;28;20452;-72
2022/07/02 04:27:49;;;;;;;6.18;1.75;;;;;;;23.18;41.99;102226.09;5053896;28;20122;-72
2022/07/02 04:30:15;;;;;;;4.40;1.33;;;;;;;22.33;44.04;102218.69;5054692;28;20024;-72
2022/07/02 04:32:40;;;;;;;5.18;1.42;;;;;;;22.35;44.12;102213.34;5053810;28;20066;-71
2022/07/02 04:35:06;;;;;;;2.55;1.38;;;;;;;21.78;45.39;102223.41;5054577;28;20020;-72
2022/07/02 04:37:31;;;;;;;6.55;1.70;;;;;;;22.68;44.20;102226.28;5072470;28;20093;-72
2022/07/02 04:39:57;;;;;;;5.78;1.40;;;;;;;22.83;44.10;102225.72;5053753;28;20027;-72
2022/07/02 04:42:23;;;;;;;4.82;1.60;;;;;;;23.38;42.71;102221.72;5067532;28;20087;-72
2022/07/02 04:44:48;;;;;;;4.95;1.40;;;;;;;23.25;42.98;102220.53;5092472;28;20055;-72
2022/07/02 04:47:13;;;;;;;3.13;1.45;;;;;;;22.71;44.70;102220.88;5090780;28;20019;-71
2022/07/02 04:49:39;;;;;;;2.40;1.50;;;;;;;23.25;43.52;102226.72;5091496;28;20032;-72
2022/07/02 04:52:05;;;;;;;2.80;1.40;;;;;;;24.19;41.31;102222.66;5091184;28;20032;-72
2022/07/02 04:54:31;;;;;;;4.55;1.17;;;;;;;25.27;39.03;102213.13;5091947;28;20448;-72
2022/07/02 04:56:57;;;;;;;6.15;1.27;;;;;;;23.74;41.29;102215.75;5091364;28;20047;-72
2022/07/02 04:59:22;;;;;;;3.85;0.88;;;;;;;24.82;39.87;102213.50;5091357;28;20016;-73
2022/07/02 05:01:48;;;;;;;3.20;1.38;;;;;;;25.55;37.99;102213.47;5090467;28;20463;-72
2022/07/02 05:04:13;;;;;;;1.95;0.90;;;;;;;26.96;35.75;102215.75;5091018;28;20020;-72
2022/07/02 05:06:38;;;;;;;2.15;0.80;;;;;;;27.68;34.43;102213.28;5092526;28;20028;-72
2022/07/02 05:09:04;;;;;;;3.70;0.80;;;;;;;28.10;34.07;102206.25;5090460;28;20429;-72
2022/07/02 05:11:30;;;;;;;3.00;0.80;;;;;;;28.65;32.85;102203.69;5092251;28;20090;-72
2022/07/02 05:13:56;;;;;;;3.28;0.80;;;;;;;27.09;34.25;102214.06;5090244;28;20066;-72
2022/07/02 05:16:21;;;;;;;2.67;0.88;;;;;;;28.17;33.31;102217.47;5090985;28;20123;-72
2022/07/02 05:18:47;;;;;;;3.35;0.90;;;;;;;29.20;31.49;102218.84;5092210;28;20058;-72
2022/07/02 05:21:13;;;;;;;5.28;1.20;;;;;;;28.40;32.52;102224.09;5091738;28;20031;-71
2022/07/02 05:23:38;;;;;;;1.48;0.60;;;;;;;27.86;33.74;102224.72;5091146;28;20020;-71
2022/07/02 05:26:04;;;;;;;7.15;0.95;;;;;;;26.67;35.61;102228.97;5091011;28;20027;-72
2022/07/02 05:28:29;;;;;;;2.30;0.82;;;;;;;25.39;37.73;102217.88;5089914;28;20039;-71
2022/07/02 05:30:54;;;;;;;4.13;0.88;;;;;;;24.43;39.19;102237.63;5090920;28;20205;-72
2022/07/02 05:33:20;;;;;;;1.77;0.80;;;;;;;24.58;39.52;102225.34;5092263;28;20142;-73
2022/07/02 05:35:46;;;;;;;2.65;0.98;;;;;;;23.65;41.48;102232.16;5090130;28;20521;-72
2022/07/02 05:38:12;;;;;;;2.53;0.90;;;;;;;24.17;40.29;102227.19;5090586;28;20020;-72
2022/07/02 05:40:37;;;;;;;4.82;1.38;;;;;;;23.55;41.88;102219.22;5090656;28;20020;-72
2022/07/02 05:43:02;;;;;;;4.03;1.20;;;;;;;23.11;43.06;102232.59;5089759;28;20055;-72
2022/07/02 05:45:28;;;;;;;3.25;1.00;;;;;;;23.94;41.26;102220.22;5090809;28;20066;-72
2022/07/02 05:47:53;;;;;;;1.05;0.88;;;;;;;23.61;42.30;102222.56;5092139;28;20036;-72
2022/07/02 05:50:19;;;;;;;3.60;1.10;;;;;;;24.44;40.25;102218.88;5090908;28;20039;-72
2022/07/02 05:52:45;;;;;;;3.72;0.98;;;;;;;24.46;40.59;102227.66;5091994;28;20415;-72
2022/07/02 05:55:11;;;;;;;5.63;1.40;;;;;;;24.16;40.75;102220.13;5090649;28;20024;-71
2022/07/02 05:57:37;;;;;;;3.60;1.27;;;;;;;23.60;41.81;102220.81;5091225;28;20080;-72
2022/07/02 06:00:08;;;;;;;4.40;0.95;;;;;;;22.82;43.08;102228.41;5090449;28;20020;-72
2022/07/02 06:02:34;;;;;;;7.20;1.38;;;;;;;23.87;42.19;102219.59;5091845;28;20103;-72
2022/07/02 06:07:38;;;;;;;2.55;1.08;;;;;;;23.23;42.07;102227.69;5091015;28;20165;-72
2022/07/02 06:07:45;;;;;;;5.45;1.00;;;;;;;24.24;40.12;102221.59;5091819;28;20028;-72
2022/07/02 06:10:14;;;;;;;1.10;0.88;;;;;;;24.02;40.22;102223.41;5090744;28;20467;-72
2022/07/02 06:12:40;;;;;;;4.57;1.20;;;;;;;25.39;37.94;102218.75;5090570;28;20368;-72
2022/07/02 06:15:05;;;;;;;5.55;1.58;;;;;;;25.19;39.39;102240.25;5090387;28;20023;-71
2022/07/02 06:17:31;;;;;;;1.55;0.90;;;;;;;25.53;39.06;102225.22;5091146;28;20024;-72
2022/07/02 06:19:56;;;;;;;3.55;1.00;;;;;;;24.38;39.03;102237.84;5091823;28;20052;-71
2022/07/02 06:22:22;;;;;;;3.20;0.90;;;;;;;27.61;33.91;102230.75;5090334;28;20027;-72
2022/07/02 06:24:47;;;;;;;4.25;0.68;;;;;;;29.83;30.46;102232.53;5089583;28;20107;-72
2022/07/02 06:27:14;;;;;;;4.20;0.77;;;;;;;29.53;29.65;102231.00;5091834;28;20031;-72
2022/07/02 06:29:40;;;;;;;2.33;0.60;;;;;;;31.68;28.33;102233.44;5091606;28;20042;-72
2022/07/02 06:32:05;;;;;;;1.40;0.85;;;;;;;32.03;26.69;102249.56;5089567;28;20020;-73
2022/07/02 06:34:31;;;;;;;3.40;0.45;;;;;;;31.24;27.00;102244.84;5089982;28;20450;-72
2022/07/02 06:36:56;;;;;;;5.47;0.60;;;;;;;30.57;27.57;102246.19;5090220;28;20379;-72
2022/07/02 06:39:22;;;;;;;2.20;0.52;;;;;;;31.59;27.00;102254.78;5089556;28;20024;-71
2022/07/02 06:44:31;;;;;;;2.00;0.50;;;;;;;33.17;24.79;102252.97;5071221;28;20089;-71
2022/07/02 06:46:56;;;;;;;2.47;0.40;;;;;;;34.41;25.14;102255.88;5052514;28;20024;-71
2022/07/02 06:49:22;;;;;;;8.48;0.60;;;;;;;33.94;22.87;102254.53;5071260;28;20035;-72
2022/07/02 06:51:47;;;;;;;3.20;0.47;;;;;;;32.15;24.47;102253.19;5074596;28;20147;-72
2022/07/02 06:54:12;;;;;;;2.25;0.60;;;;;;;31.30;26.23;102249.75;5056099;28;20442;-72
2022/07/02 06:56:38;;;;;;;2.10;0.50;;;;;;;33.83;23.89;102249.19;5056754;28;20388;-72
2022/07/02 06:59:04;;;;;;;1.38;0.40;;;;;;;34.31;23.35;102251.28;5074961;28;20034;-72
2022/07/02 07:01:29;;;;;;;1.08;0.45;;;;;;;33.52;22.63;102249.13;5073845;28;20103;-72
2022/07/02 07:03:55;;;;;;;1.65;0.30;;;;;;;33.92;23.25;102233.97;5074592;28;20028;-72
2022/07/02 07:06:24;;;;;;;0.68;0.32;;;;;;;33.28;23.56;102254.81;5056470;28;20024;-72
2022/07/02 07:08:52;;;;;;;2.58;0.50;;;;;;;32.59;24.08;102245.13;5056621;28;20178;-72
2022/07/02 07:11:24;;;;;;;3.00;0.47;;;;;;;34.07;22.48;102242.59;5074501;28;20029;-72
2022/07/02 07:13:49;;;;;;;1.27;0.50;;;;;;;36.40;20.88;102239.13;5055589;28;20039;-72
2022/07/02 07:16:15;;;;;;;1.13;0.50;;;;;;;36.22;19.85;102242.63;5074492;28;20028;-72
2022/07/02 07:18:47;;;;;;;2.75;0.70;;;;;;;37.41;19.33;102248.97;5074518;28;20027;-72
2022/07/02 07:21:12;;;;;;;2.72;0.50;;;;;;;37.00;21.32;102260.34;5055345;28;20028;-72
2022/07/02 07:23:38;;;;;;;1.77;0.50;;;;;;;38.41;18.81;102262.16;5074437;28;20082;-72
2022/07/02 07:26:04;;;;;;;0.73;0.20;;;;;;;38.82;18.18;102244.00;5056211;28;20035;-72
2022/07/02 07:28:29;;;;;;;1.45;0.60;;;;;;;40.11;17.63;102246.09;5055421;28;20055;-72
2022/07/02 07:30:55;;;;;;;0.70;0.45;;;;;;;40.12;17.31;102251.41;5055966;28;20423;-72
2022/07/02 07:33:20;;;;;;;0.65;0.35;;;;;;;41.13;15.79;102253.34;5074169;28;20043;-72
2022/07/02 07:35:45;;;;;;;1.60;0.40;;;;;;;38.12;17.22;102247.00;5055306;28;20468;-72
2022/07/02 07:38:11;;;;;;;3.33;0.47;;;;;;;37.05;18.88;102254.44;5055786;28;20414;-72
2022/07/02 07:40:38;;;;;;;1.27;0.40;;;;;;;37.24;18.98;102248.81;5056020;28;20021;-72
2022/07/02 07:43:03;;;;;;;3.33;0.40;;;;;;;35.62;19.28;102246.53;5073168;28;20044;-72
2022/07/02 07:45:30;;;;;;;0.55;0.25;;;;;;;38.33;18.85;102247.47;5056141;28;20086;-72
2022/07/02 07:47:56;;;;;;;0.43;0.30;;;;;;;38.42;16.58;102247.50;5055710;28;20021;-72
2022/07/02 07:50:21;;;;;;;2.55;0.52;;;;;;;38.66;17.22;102249.41;5055051;28;20056;-72
2022/07/02 07:52:48;;;;;;;0.70;0.20;;;;;;;38.89;16.71;102241.44;5055825;28;20028;-72
2022/07/02 07:55:13;;;;;;;2.60;0.65;;;;;;;37.86;16.96;102247.91;5055882;28;20031;-72
2022/07/02 07:57:39;;;;;;;1.00;0.35;;;;;;;39.68;16.06;102244.50;5054656;28;20044;-72
2022/07/02 08:00:05;;;;;;;2.10;0.40;;;;;;;39.29;16.54;102237.00;5055672;28;20514;-72
2022/07/02 08:02:31;;;;;;;1.98;0.65;;;;;;;37.68;17.45;102251.50;5055531;28;20089;-72
2022/07/02 08:04:56;;;;;;;0.73;0.30;;;;;;;41.03;15.29;102243.50;5054879;28;20017;-72
2022/07/02 08:07:21;;;;;;;2.25;0.43;;;;;;;38.02;16.77;102242.53;5055338;28;20393;-72
2022/07/02 08:09:52;;;;;;;1.42;0.43;;;;;;;37.44;17.88;102243.19;5054718;28;20505;-71
2022/07/02 08:12:20;;;;;;;2.30;1.02;;;;;;;36.39;18.37;102248.28;5055484;28;20028;-72
2022/07/02 08:14:45;;;;;;;2.88;0.40;;;;;;;38.01;17.72;102239.97;5055459;28;20039;-72
2022/07/02 08:17:10;;;;;;;1.58;0.82;;;;;;;37.14;18.12;102242.59;5054313;28;20024;-72
2022/07/02 08:19:36;;;;;;;1.92;0.60;;;;;;;38.04;18.27;102238.78;5073221;28;20512;-72
2022/07/02 08:22:01;;;;;;;1.48;0.60;;;;;;;38.75;17.98;102236.66;5073267;28;20459;-72
2022/07/02 08:24:26;;;;;;;3.80;0.50;;;;;;;36.62;18.91;102243.28;5054174;28;20028;-72
2022/07/02 08:26:52;;;;;;;1.83;0.57;;;;;;;37.22;17.70;102239.94;5073107;28;20029;-71
2022/07/02 08:29:17;;;;;;;1.20;0.30;;;;;;;38.73;17.02;102238.69;5055076;28;20158;-72
2022/07/02 08:31:42;;;;;;;3.70;0.60;;;;;;;39.01;17.21;102231.88;5054360;28;20465;-71
2022/07/02 08:34:08;;;;;;;1.42;0.40;;;;;;;38.81;17.09;102238.72;5055170;28;20024;-71
2022/07/02 08:36:34;;;;;;;1.58;0.50;;;;;;;40.12;16.58;102239.56;5054823;28;20384;-72
2022/07/02 08:38:59;;;;;;;0.75;0.38;;;;;;;39.32;16.89;102244.91;5054142;28;20036;-71
2022/07/02 08:41:25;;;;;;;1.63;0.50;;;;;;;37.90;17.17;102232.09;5072735;28;20039;-71
2022/07/02 08:43:53;;;;;;;2.45;0.60;;;;;;;39.43;17.27;102234.63;5054818;28;20075;-72
2022/07/02 08:46:19;;;;;;;1.52;0.60;;;;;;;37.32;18.12;102246.16;5053966;28;20033;-72
2022/07/02 08:48:46;;;;;;;2.10;0.40;;;;;;;37.44;18.15;102243.19;5072728;28;20032;-71
2022/07/02 08:51:13;;;;;;;0.93;0.50;;;;;;;38.19;19.00;102242.59;5072623;28;20107;-71
2022/07/02 08:53:41;;;;;;;0.55;0.40;;;;;;;35.32;19.58;102236.72;5071858;28;20027;-72
2022/07/02 08:56:08;;;;;;;4.40;0.60;;;;;;;37.02;18.48;102241.97;5054449;28;20107;-71
2022/07/02 08:58:34;;;;;;;1.10;0.30;;;;;;;38.72;17.76;102231.50;5054619;28;20111;-72
2022/07/02 09:01:00;;;;;;;1.40;0.45;;;;;;;37.37;17.97;102236.66;5053900;28;20013;-71
2022/07/02 09:03:26;;;;;;;0.93;0.30;;;;;;;38.12;17.69;102219.72;5072483;28;20031;-72
2022/07/02 09:05:53;;;;;;;1.38;0.55;;;;;;;39.85;16.98;102222.56;5072311;28;20024;-72
2022/07/02 09:08:22;;;;;;;1.25;0.40;;;;;;;39.18;16.45;102220.97;5053922;28;20031;-72
2022/07/02 09:10:50;;;;;;;2.55;0.80;;;;;;;36.07;19.14;102222.38;5054023;28;20036;-71
2022/07/02 09:13:17;;;;;;;1.67;0.32;;;;;;;35.45;19.51;102211.97;5053328;28;20031;-72
2022/07/02 09:15:44;;;;;;;1.75;0.35;;;;;;;37.75;17.40;102209.97;5072317;28;20035;-71
2022/07/02 09:18:09;;;;;;;1.20;0.38;;;;;;;37.49;17.83;102219.88;5072092;28;20042;-72
2022/07/02 09:20:35;;;;;;;0.30;0.30;;;;;;;38.58;17.39;102209.31;5053421;28;20020;-72
2022/07/02 09:23:00;;;;;;;0.85;0.28;;;;;;;37.62;17.15;102216.72;5054144;28;20043;-72
2022/07/02 09:25:30;;;;;;;1.58;0.50;;;;;;;38.13;17.27;102205.91;5071898;28;20423;-72
2022/07/02 09:28:00;;;;;;;0.95;0.57;;;;;;;36.73;18.95;102213.09;5053446;28;20036;-71
2022/07/02 09:30:29;;;;;;;2.13;0.40;;;;;;;37.95;17.81;102196.94;5054101;28;20044;-71
2022/07/02 09:33:28;;;;;;;1.83;0.40;;;;;;;39.02;18.03;102206.28;5072101;28;20070;-71
2022/07/02 09:35:41;;;;;;;0.60;0.50;;;;;;;36.26;18.52;102205.06;5070991;28;20123;-72
2022/07/02 09:38:10;;;;;;;1.95;0.50;;;;;;;37.33;18.19;102209.72;5053788;28;20384;-71
2022/07/02 09:40:56;;;;;;;1.30;0.35;;;;;;;38.08;16.94;102202.81;5054005;28;20025;-72
2022/07/02 09:43:32;;;;;;;0.88;0.40;;;;;;;38.45;16.50;102198.00;5081919;28;20043;-72
2022/07/02 09:45:59;;;;;;;2.13;0.60;;;;;;;36.80;18.32;102197.00;5091121;28;20027;-72
2022/07/02 09:48:25;;;;;;;1.13;0.47;;;;;;;36.18;18.20;102197.66;5091310;28;20480;-72
2022/07/02 09:50:54;;;;;;;0.93;0.60;;;;;;;37.53;17.10;102190.41;5090467;28;20031;-72
2022/07/02 09:53:19;;;;;;;2.67;0.40;;;;;;;38.12;16.56;102197.88;5090761;28;20450;-72
2022/07/02 09:55:51;;;;;;;0.63;0.30;;;;;;;38.12;17.72;102186.97;5091328;28;20027;-72
2022/07/02 09:58:28;;;;;;;3.03;0.57;;;;;;;38.38;17.11;102183.31;5090746;28;20472;-72
2022/07/02 10:00:54;;;;;;;0.55;0.32;;;;;;;38.45;16.92;102192.53;5090885;28;20024;-71
2022/07/02 10:03:20;;;;;;;0.98;0.40;;;;;;;38.50;17.04;102191.00;5089631;28;20038;-72
2022/07/02 10:05:50;;;;;;;1.27;0.40;;;;;;;36.64;17.46;102198.53;5090674;28;20054;-71
2022/07/02 10:08:16;;;;;;;0.82;0.43;;;;;;;36.87;17.41;102195.38;5090577;28;20024;-72
2022/07/02 10:10:42;;;;;;;0.80;0.60;;;;;;;37.43;18.56;102193.25;5089768;28;20024;-72
2022/07/02 10:13:10;;;;;;;3.53;0.73;;;;;;;38.07;17.35;102186.59;5090567;28;20028;-74
2022/07/02 10:15:39;;;;;;;3.00;0.50;;;;;;;38.62;17.82;102186.09;5091966;28;20066;-72
2022/07/02 10:18:06;;;;;;;0.90;0.38;;;;;;;35.47;18.01;102182.75;5089734;28;20028;-73
2022/07/02 10:20:33;;;;;;;1.08;0.47;;;;;;;36.45;17.73;102188.66;5090509;28;20016;-71
2022/07/02 10:23:03;;;;;;;0.85;0.30;;;;;;;39.27;16.55;102176.22;5090375;28;20024;-71
2022/07/02 10:25:30;;;;;;;1.92;0.43;;;;;;;37.65;18.04;102180.94;5091245;28;20019;-72
2022/07/02 10:27:56;;;;;;;1.35;0.52;;;;;;;35.27;18.79;102171.91;5094384;28;20024;-73
2022/07/02 10:30:32;;;;;;;0.75;0.50;;;;;;;34.97;19.98;102171.09;5093849;28;20462;-71
2022/07/02 10:33:09;;;;;;;2.78;0.50;;;;;;;36.92;16.88;102173.97;5094337;28;20020;-71
2022/07/02 10:35:36;;;;;;;1.05;0.38;;;;;;;38.81;17.25;102167.69;5094064;28;20036;-72
2022/07/02 10:38:02;;;;;;;2.05;0.40;;;;;;;38.00;17.25;102156.41;5093400;28;20028;-72
2022/07/02 10:40:28;;;;;;;1.75;0.50;;;;;;;36.15;17.30;102170.78;5095480;28;20416;-73
2022/07/02 10:42:59;;;;;;;0.73;0.30;;;;;;;33.10;20.33;102173.25;5093732;28;20082;-72
2022/07/02 10:45:25;;;;;;;2.65;0.47;;;;;;;36.06;18.57;102163.53;5093223;28;20603;-72
2022/07/02 10:48:02;;;;;;;1.80;0.50;;;;;;;33.91;19.24;102157.19;5094015;28;20031;-72
2022/07/02 10:50:39;;;;;;;2.05;0.57;;;;;;;33.27;21.84;102164.53;5095174;28;20121;-72
2022/07/02 10:53:19;;;;;;;2.88;0.50;;;;;;;34.43;19.50;102162.50;5093080;28;20027;-72
2022/07/02 10:55:55;;;;;;;2.53;0.43;;;;;;;33.10;22.20;102167.84;5094106;28;20055;-72
2022/07/02 10:58:22;;;;;;;1.25;0.50;;;;;;;33.98;22.19;102163.78;5095345;28;20043;-73
2022/07/02 11:00:48;;;;;;;2.75;0.90;;;;;;;35.19;20.22;102154.63;5093126;28;20031;-73
2022/07/02 11:03:14;;;;;;;2.17;0.68;;;;;;;35.03;20.81;102152.53;5093747;28;20043;-71
2022/07/02 11:05:53;;;;;;;4.60;1.10;;;;;;;34.57;22.35;102158.50;5094135;28;20534;-74
2022/07/02 11:08:47;;;;;;;4.55;0.95;;;;;;;34.62;21.34;102156.22;5093362;28;20047;-73
2022/07/02 11:11:16;;;;;;;3.85;0.70;;;;;;;34.46;21.75;102158.66;5092357;28;20045;-74
2022/07/02 11:13:44;;;;;;;2.15;0.63;;;;;;;33.32;22.38;102161.44;5092662;28;20475;-74
2022/07/02 11:16:24;;;;;;;2.15;0.80;;;;;;;33.74;22.52;102144.25;5093479;28;20061;-73
2022/07/02 11:18:51;;;;;;;2.78;0.77;;;;;;;33.54;23.18;102155.00;5094714;28;20685;-73
2022/07/02 11:21:17;;;;;;;4.75;1.02;;;;;;;32.77;23.31;102156.19;5092587;28;20016;-73
2022/07/02 11:23:44;;;;;;;1.30;0.70;;;;;;;33.37;23.09;102145.63;5093550;28;20024;-71
2022/07/02 11:26:09;;;;;;;3.30;1.20;;;;;;;32.70;23.11;102150.41;5093056;28;20043;-71
2022/07/02 11:28:38;;;;;;;1.85;1.00;;;;;;;30.82;25.58;102149.91;5092428;28;20020;-72